sensor_id;sensor_type;location;lat;lon;timestamp;P1;durP1;ratioP1;P2;durP2;ratioP2
17228;SDS011;8731;50.364;8.958;2023-10-13T00:03:02;20.33;;;16.20;;
17228;SDS011;8731;50.364;8.958;2023-10-13T00:07:26;23.20;;;15.90;;
17228;SDS011;8731;50.364;8.958;2023-10-13T00:11:48;19.73;;;15.60;;
17228;SDS011;8731;50.364;8.958;2023-10-13T00:16:12;21.97;;;16.80;;
17228;SDS011;8731;50.364;8.958;2023-10-13T00:20:42;21.10;;;17.53;;
17228;SDS011;8731;50.364;8.958;2023-10-13T00:25:09;23.20;;;16.83;;
17228;SDS011;8731;50.364;8.958;2023-10-13T00:29:39;23.57;;;17.00;;
17228;SDS011;8731;50.364;8.958;2023-10-13T00:34:03;19.53;;;16.40;;
17228;SDS011;8731;50.364;8.958;2023-10-13T00:38:33;17.87;;;14.40;;
17228;SDS011;8731;50.364;8.958;2023-10-13T00:42:57;19.03;;;15.53;;
17228;SDS011;8731;50.364;8.958;2023-10-13T00:47:40;16.07;;;12.07;;
17228;SDS011;8731;50.364;8.958;2023-10-13T00:52:09;22.33;;;13.80;;
17228;SDS011;8731;50.364;8.958;2023-10-13T00:56:34;19.77;;;12.83;;
17228;SDS011;8731;50.364;8.958;2023-10-13T01:01:06;20.23;;;11.80;;
17228;SDS011;8731;50.364;8.958;2023-10-13T01:05:38;15.97;;;11.03;;
17228;SDS011;8731;50.364;8.958;2023-10-13T01:10:02;19.20;;;12.97;;
17228;SDS011;8731;50.364;8.958;2023-10-13T01:14:27;18.43;;;13.77;;
17228;SDS011;8731;50.364;8.958;2023-10-13T01:18:49;14.67;;;12.50;;
17228;SDS011;8731;50.364;8.958;2023-10-13T01:23:13;20.97;;;13.57;;
17228;SDS011;8731;50.364;8.958;2023-10-13T01:27:39;18.03;;;13.13;;
17228;SDS011;8731;50.364;8.958;2023-10-13T01:32:03;19.63;;;12.47;;
17228;SDS011;8731;50.364;8.958;2023-10-13T01:36:26;14.90;;;10.77;;
17228;SDS011;8731;50.364;8.958;2023-10-13T01:40:57;16.50;;;11.77;;
17228;SDS011;8731;50.364;8.958;2023-10-13T01:45:19;13.73;;;11.47;;
17228;SDS011;8731;50.364;8.958;2023-10-13T01:49:42;18.90;;;14.87;;
17228;SDS011;8731;50.364;8.958;2023-10-13T01:54:07;17.63;;;11.80;;
17228;SDS011;8731;50.364;8.958;2023-10-13T01:58:33;16.40;;;11.70;;
17228;SDS011;8731;50.364;8.958;2023-10-13T02:02:56;17.77;;;10.27;;
17228;SDS011;8731;50.364;8.958;2023-10-13T02:07:22;14.20;;;9.20;;
17228;SDS011;8731;50.364;8.958;2023-10-13T02:11:49;13.67;;;9.47;;
17228;SDS011;8731;50.364;8.958;2023-10-13T02:16:16;17.57;;;9.83;;
17228;SDS011;8731;50.364;8.958;2023-10-13T02:20:42;11.10;;;9.50;;
17228;SDS011;8731;50.364;8.958;2023-10-13T02:25:06;14.50;;;9.63;;
17228;SDS011;8731;50.364;8.958;2023-10-13T02:29:39;16.30;;;9.57;;
17228;SDS011;8731;50.364;8.958;2023-10-13T02:34:03;15.40;;;8.93;;
17228;SDS011;8731;50.364;8.958;2023-10-13T02:38:29;18.13;;;9.13;;
17228;SDS011;8731;50.364;8.958;2023-10-13T02:43:03;11.57;;;9.03;;
17228;SDS011;8731;50.364;8.958;2023-10-13T02:47:26;12.90;;;9.00;;
17228;SDS011;8731;50.364;8.958;2023-10-13T02:51:53;15.47;;;9.47;;
17228;SDS011;8731;50.364;8.958;2023-10-13T02:56:19;14.53;;;9.10;;
17228;SDS011;8731;50.364;8.958;2023-10-13T03:00:41;13.33;;;8.83;;
17228;SDS011;8731;50.364;8.958;2023-10-13T03:05:04;15.73;;;9.83;;
17228;SDS011;8731;50.364;8.958;2023-10-13T03:09:31;14.53;;;8.97;;
17228;SDS011;8731;50.364;8.958;2023-10-13T03:13:57;16.17;;;8.80;;
17228;SDS011;8731;50.364;8.958;2023-10-13T03:18:26;19.37;;;9.27;;
17228;SDS011;8731;50.364;8.958;2023-10-13T03:22:53;14.87;;;8.80;;
17228;SDS011;8731;50.364;8.958;2023-10-13T03:27:17;13.50;;;8.47;;
17228;SDS011;8731;50.364;8.958;2023-10-13T03:31:43;14.10;;;7.90;;
17228;SDS011;8731;50.364;8.958;2023-10-13T03:36:06;14.93;;;9.27;;
17228;SDS011;8731;50.364;8.958;2023-10-13T03:40:29;15.20;;;9.07;;
17228;SDS011;8731;50.364;8.958;2023-10-13T03:44:57;13.13;;;9.00;;
17228;SDS011;8731;50.364;8.958;2023-10-13T03:49:19;13.80;;;9.80;;
17228;SDS011;8731;50.364;8.958;2023-10-13T03:53:45;17.10;;;9.63;;
17228;SDS011;8731;50.364;8.958;2023-10-13T03:58:14;13.53;;;8.77;;
17228;SDS011;8731;50.364;8.958;2023-10-13T04:02:38;13.07;;;8.57;;
17228;SDS011;8731;50.364;8.958;2023-10-13T04:07:05;11.97;;;8.00;;
17228;SDS011;8731;50.364;8.958;2023-10-13T04:11:46;14.27;;;8.67;;
17228;SDS011;8731;50.364;8.958;2023-10-13T04:16:39;12.70;;;8.10;;
17228;SDS011;8731;50.364;8.958;2023-10-13T04:21:13;13.40;;;8.47;;
17228;SDS011;8731;50.364;8.958;2023-10-13T04:30:29;12.20;;;8.40;;
17228;SDS011;8731;50.364;8.958;2023-10-13T04:35:12;15.23;;;8.80;;
17228;SDS011;8731;50.364;8.958;2023-10-13T04:39:40;14.37;;;7.90;;
17228;SDS011;8731;50.364;8.958;2023-10-13T04:44:03;12.60;;;8.30;;
17228;SDS011;8731;50.364;8.958;2023-10-13T04:48:47;13.50;;;8.37;;
17228;SDS011;8731;50.364;8.958;2023-10-13T04:53:09;15.53;;;7.97;;
17228;SDS011;8731;50.364;8.958;2023-10-13T04:57:49;12.57;;;8.00;;
17228;SDS011;8731;50.364;8.958;2023-10-13T05:02:50;10.97;;;8.27;;
17228;SDS011;8731;50.364;8.958;2023-10-13T05:07:41;13.63;;;8.47;;
17228;SDS011;8731;50.364;8.958;2023-10-13T05:17:52;13.30;;;8.13;;
17228;SDS011;8731;50.364;8.958;2023-10-13T05:22:32;12.87;;;8.27;;
17228;SDS011;8731;50.364;8.958;2023-10-13T05:27:12;14.27;;;7.83;;
17228;SDS011;8731;50.364;8.958;2023-10-13T05:31:56;14.97;;;8.33;;
17228;SDS011;8731;50.364;8.958;2023-10-13T05:36:39;15.43;;;8.20;;
17228;SDS011;8731;50.364;8.958;2023-10-13T05:41:22;14.50;;;8.00;;
17228;SDS011;8731;50.364;8.958;2023-10-13T05:46:04;13.10;;;7.97;;
17228;SDS011;8731;50.364;8.958;2023-10-13T05:50:53;13.07;;;9.17;;
17228;SDS011;8731;50.364;8.958;2023-10-13T05:55:46;13.77;;;8.57;;
17228;SDS011;8731;50.364;8.958;2023-10-13T06:00:26;14.13;;;8.57;;
17228;SDS011;8731;50.364;8.958;2023-10-13T06:05:38;16.23;;;8.80;;
17228;SDS011;8731;50.364;8.958;2023-10-13T06:10:19;16.37;;;8.60;;
17228;SDS011;8731;50.364;8.958;2023-10-13T06:14:59;13.67;;;9.17;;
17228;SDS011;8731;50.364;8.958;2023-10-13T06:19:40;11.07;;;8.00;;
17228;SDS011;8731;50.364;8.958;2023-10-13T06:24:20;14.97;;;8.93;;
17228;SDS011;8731;50.364;8.958;2023-10-13T06:29:01;15.73;;;8.70;;
17228;SDS011;8731;50.364;8.958;2023-10-13T06:33:28;13.77;;;8.40;;
17228;SDS011;8731;50.364;8.958;2023-10-13T06:37:53;12.37;;;8.97;;
17228;SDS011;8731;50.364;8.958;2023-10-13T06:42:20;12.47;;;8.17;;
17228;SDS011;8731;50.364;8.958;2023-10-13T06:46:48;13.83;;;8.63;;
17228;SDS011;8731;50.364;8.958;2023-10-13T06:51:12;14.70;;;8.00;;
17228;SDS011;8731;50.364;8.958;2023-10-13T06:55:41;14.93;;;8.27;;
17228;SDS011;8731;50.364;8.958;2023-10-13T07:00:07;13.53;;;7.87;;
17228;SDS011;8731;50.364;8.958;2023-10-13T07:04:40;12.87;;;7.93;;
17228;SDS011;8731;50.364;8.958;2023-10-13T07:09:03;13.13;;;8.30;;
17228;SDS011;8731;50.364;8.958;2023-10-13T07:13:35;15.80;;;8.23;;
17228;SDS011;8731;50.364;8.958;2023-10-13T07:17:58;18.27;;;8.77;;
17228;SDS011;8731;50.364;8.958;2023-10-13T07:22:25;12.60;;;7.37;;
17228;SDS011;8731;50.364;8.958;2023-10-13T07:26:48;9.53;;;6.80;;
17228;SDS011;8731;50.364;8.958;2023-10-13T07:31:18;11.70;;;7.43;;
17228;SDS011;8731;50.364;8.958;2023-10-13T07:35:41;15.13;;;7.17;;
17228;SDS011;8731;50.364;8.958;2023-10-13T07:40:05;10.53;;;6.53;;
17228;SDS011;8731;50.364;8.958;2023-10-13T07:44:50;13.90;;;6.67;;
17228;SDS011;8731;50.364;8.958;2023-10-13T07:49:15;11.57;;;6.73;;
17228;SDS011;8731;50.364;8.958;2023-10-13T07:53:40;14.43;;;6.87;;
17228;SDS011;8731;50.364;8.958;2023-10-13T07:58:05;12.67;;;7.27;;
17228;SDS011;8731;50.364;8.958;2023-10-13T08:02:28;15.27;;;6.73;;
17228;SDS011;8731;50.364;8.958;2023-10-13T08:07:07;10.67;;;6.13;;
17228;SDS011;8731;50.364;8.958;2023-10-13T08:11:36;11.20;;;6.30;;
17228;SDS011;8731;50.364;8.958;2023-10-13T08:16:02;13.87;;;7.37;;
17228;SDS011;8731;50.364;8.958;2023-10-13T08:20:28;14.73;;;7.20;;
17228;SDS011;8731;50.364;8.958;2023-10-13T08:24:58;16.53;;;7.37;;
17228;SDS011;8731;50.364;8.958;2023-10-13T08:29:34;16.70;;;7.10;;
17228;SDS011;8731;50.364;8.958;2023-10-13T08:34:30;13.87;;;7.17;;
17228;SDS011;8731;50.364;8.958;2023-10-13T08:38:58;12.60;;;7.60;;
17228;SDS011;8731;50.364;8.958;2023-10-13T08:43:41;11.83;;;6.43;;
17228;SDS011;8731;50.364;8.958;2023-10-13T08:48:05;12.43;;;7.20;;
17228;SDS011;8731;50.364;8.958;2023-10-13T08:52:34;14.53;;;6.70;;
17228;SDS011;8731;50.364;8.958;2023-10-13T09:01:47;13.80;;;7.60;;
17228;SDS011;8731;50.364;8.958;2023-10-13T09:06:19;13.93;;;6.47;;
17228;SDS011;8731;50.364;8.958;2023-10-13T09:10:44;13.33;;;7.33;;
17228;SDS011;8731;50.364;8.958;2023-10-13T09:15:29;11.40;;;6.10;;
17228;SDS011;8731;50.364;8.958;2023-10-13T09:20:15;14.97;;;7.20;;
17228;SDS011;8731;50.364;8.958;2023-10-13T09:24:56;13.77;;;6.57;;
17228;SDS011;8731;50.364;8.958;2023-10-13T09:29:21;15.57;;;6.57;;
17228;SDS011;8731;50.364;8.958;2023-10-13T09:33:45;14.27;;;6.13;;
17228;SDS011;8731;50.364;8.958;2023-10-13T09:38:10;17.13;;;6.93;;
17228;SDS011;8731;50.364;8.958;2023-10-13T09:42:35;13.07;;;6.37;;
17228;SDS011;8731;50.364;8.958;2023-10-13T09:47:01;14.63;;;6.33;;
17228;SDS011;8731;50.364;8.958;2023-10-13T09:51:29;11.60;;;5.50;;
17228;SDS011;8731;50.364;8.958;2023-10-13T09:55:54;8.27;;;4.87;;
17228;SDS011;8731;50.364;8.958;2023-10-13T10:00:32;12.63;;;6.00;;
17228;SDS011;8731;50.364;8.958;2023-10-13T10:05:23;12.73;;;5.30;;
17228;SDS011;8731;50.364;8.958;2023-10-13T10:09:55;10.57;;;5.27;;
17228;SDS011;8731;50.364;8.958;2023-10-13T10:14:19;11.93;;;5.50;;
17228;SDS011;8731;50.364;8.958;2023-10-13T10:19:00;12.30;;;5.73;;
17228;SDS011;8731;50.364;8.958;2023-10-13T10:23:25;9.63;;;4.90;;
17228;SDS011;8731;50.364;8.958;2023-10-13T10:27:56;11.00;;;5.13;;
17228;SDS011;8731;50.364;8.958;2023-10-13T10:32:19;11.43;;;6.20;;
17228;SDS011;8731;50.364;8.958;2023-10-13T10:36:42;13.87;;;6.23;;
17228;SDS011;8731;50.364;8.958;2023-10-13T10:41:09;8.20;;;6.17;;
17228;SDS011;8731;50.364;8.958;2023-10-13T10:45:35;8.67;;;5.50;;
17228;SDS011;8731;50.364;8.958;2023-10-13T10:50:05;10.30;;;8.33;;
17228;SDS011;8731;50.364;8.958;2023-10-13T10:54:39;15.00;;;7.33;;
17228;SDS011;8731;50.364;8.958;2023-10-13T10:59:06;11.13;;;5.80;;
17228;SDS011;8731;50.364;8.958;2023-10-13T11:03:38;10.70;;;6.23;;
17228;SDS011;8731;50.364;8.958;2023-10-13T11:08:02;9.53;;;5.87;;
17228;SDS011;8731;50.364;8.958;2023-10-13T11:12:32;12.60;;;6.57;;
17228;SDS011;8731;50.364;8.958;2023-10-13T11:16:56;11.90;;;5.43;;
17228;SDS011;8731;50.364;8.958;2023-10-13T11:21:28;9.27;;;5.53;;
17228;SDS011;8731;50.364;8.958;2023-10-13T11:25:56;10.60;;;5.37;;
17228;SDS011;8731;50.364;8.958;2023-10-13T11:30:19;10.43;;;5.40;;
17228;SDS011;8731;50.364;8.958;2023-10-13T11:34:47;11.17;;;5.40;;
17228;SDS011;8731;50.364;8.958;2023-10-13T11:39:14;13.17;;;5.70;;
17228;SDS011;8731;50.364;8.958;2023-10-13T11:43:43;9.80;;;5.73;;
17228;SDS011;8731;50.364;8.958;2023-10-13T11:48:26;9.93;;;5.30;;
17228;SDS011;8731;50.364;8.958;2023-10-13T11:52:58;10.83;;;5.87;;
17228;SDS011;8731;50.364;8.958;2023-10-13T11:57:20;12.10;;;5.90;;
17228;SDS011;8731;50.364;8.958;2023-10-13T12:01:43;11.57;;;5.20;;
17228;SDS011;8731;50.364;8.958;2023-10-13T12:06:24;18.20;;;12.40;;
17228;SDS011;8731;50.364;8.958;2023-10-13T12:10:57;45.53;;;32.23;;
17228;SDS011;8731;50.364;8.958;2023-10-13T12:15:41;19.27;;;11.37;;
17228;SDS011;8731;50.364;8.958;2023-10-13T12:20:16;13.33;;;6.77;;
17228;SDS011;8731;50.364;8.958;2023-10-13T12:24:52;13.03;;;6.90;;
17228;SDS011;8731;50.364;8.958;2023-10-13T12:29:16;9.60;;;5.77;;
17228;SDS011;8731;50.364;8.958;2023-10-13T12:33:42;10.77;;;6.43;;
17228;SDS011;8731;50.364;8.958;2023-10-13T12:38:07;13.17;;;6.23;;
17228;SDS011;8731;50.364;8.958;2023-10-13T12:42:46;10.40;;;5.40;;
17228;SDS011;8731;50.364;8.958;2023-10-13T12:47:24;11.07;;;7.90;;
17228;SDS011;8731;50.364;8.958;2023-10-13T12:52:04;11.03;;;7.90;;
17228;SDS011;8731;50.364;8.958;2023-10-13T12:56:36;11.10;;;6.13;;
17228;SDS011;8731;50.364;8.958;2023-10-13T13:01:01;10.53;;;5.90;;
17228;SDS011;8731;50.364;8.958;2023-10-13T13:05:27;8.03;;;5.10;;
17228;SDS011;8731;50.364;8.958;2023-10-13T13:09:51;9.37;;;6.40;;
17228;SDS011;8731;50.364;8.958;2023-10-13T13:14:16;8.10;;;5.33;;
17228;SDS011;8731;50.364;8.958;2023-10-13T13:18:38;16.00;;;11.00;;
17228;SDS011;8731;50.364;8.958;2023-10-13T13:23:04;9.33;;;6.90;;
17228;SDS011;8731;50.364;8.958;2023-10-13T13:27:27;8.40;;;5.13;;
17228;SDS011;8731;50.364;8.958;2023-10-13T13:31:50;11.33;;;6.27;;
17228;SDS011;8731;50.364;8.958;2023-10-13T13:36:13;11.73;;;5.60;;
17228;SDS011;8731;50.364;8.958;2023-10-13T13:40:40;6.20;;;5.10;;
17228;SDS011;8731;50.364;8.958;2023-10-13T13:45:12;9.43;;;5.03;;
17228;SDS011;8731;50.364;8.958;2023-10-13T13:49:48;7.13;;;5.30;;
17228;SDS011;8731;50.364;8.958;2023-10-13T13:54:13;10.53;;;6.20;;
17228;SDS011;8731;50.364;8.958;2023-10-13T13:58:37;9.73;;;6.10;;
17228;SDS011;8731;50.364;8.958;2023-10-13T14:03:00;8.03;;;5.10;;
17228;SDS011;8731;50.364;8.958;2023-10-13T14:07:23;13.37;;;8.73;;
17228;SDS011;8731;50.364;8.958;2023-10-13T14:11:46;23.17;;;12.10;;
17228;SDS011;8731;50.364;8.958;2023-10-13T14:16:32;8.60;;;6.70;;
17228;SDS011;8731;50.364;8.958;2023-10-13T14:20:57;8.93;;;5.73;;
17228;SDS011;8731;50.364;8.958;2023-10-13T14:25:24;9.13;;;4.90;;
17228;SDS011;8731;50.364;8.958;2023-10-13T14:29:48;9.20;;;4.80;;
17228;SDS011;8731;50.364;8.958;2023-10-13T14:34:14;10.80;;;5.37;;
17228;SDS011;8731;50.364;8.958;2023-10-13T14:38:37;6.57;;;5.17;;
17228;SDS011;8731;50.364;8.958;2023-10-13T14:43:04;9.87;;;5.00;;
17228;SDS011;8731;50.364;8.958;2023-10-13T14:47:28;8.67;;;4.83;;
17228;SDS011;8731;50.364;8.958;2023-10-13T14:51:52;9.00;;;5.30;;
17228;SDS011;8731;50.364;8.958;2023-10-13T14:56:16;11.53;;;5.17;;
17228;SDS011;8731;50.364;8.958;2023-10-13T15:00:39;10.13;;;5.30;;
17228;SDS011;8731;50.364;8.958;2023-10-13T15:05:05;12.00;;;5.37;;
17228;SDS011;8731;50.364;8.958;2023-10-13T15:09:29;12.10;;;5.43;;
17228;SDS011;8731;50.364;8.958;2023-10-13T15:13:52;7.43;;;5.13;;
17228;SDS011;8731;50.364;8.958;2023-10-13T15:18:15;13.10;;;5.33;;
17228;SDS011;8731;50.364;8.958;2023-10-13T15:22:38;8.73;;;5.10;;
17228;SDS011;8731;50.364;8.958;2023-10-13T15:27:02;14.20;;;4.97;;
17228;SDS011;8731;50.364;8.958;2023-10-13T15:31:28;15.20;;;6.37;;
17228;SDS011;8731;50.364;8.958;2023-10-13T15:35:58;12.33;;;7.00;;
17228;SDS011;8731;50.364;8.958;2023-10-13T15:40:20;13.47;;;7.73;;
17228;SDS011;8731;50.364;8.958;2023-10-13T15:44:45;8.23;;;5.83;;
17228;SDS011;8731;50.364;8.958;2023-10-13T15:49:08;10.20;;;6.03;;
17228;SDS011;8731;50.364;8.958;2023-10-13T15:53:33;10.90;;;5.83;;
17228;SDS011;8731;50.364;8.958;2023-10-13T15:57:56;13.00;;;5.27;;
17228;SDS011;8731;50.364;8.958;2023-10-13T16:02:21;8.07;;;4.93;;
17228;SDS011;8731;50.364;8.958;2023-10-13T16:06:45;14.30;;;7.23;;
17228;SDS011;8731;50.364;8.958;2023-10-13T16:11:11;10.17;;;4.90;;
17228;SDS011;8731;50.364;8.958;2023-10-13T16:15:38;9.77;;;5.13;;
17228;SDS011;8731;50.364;8.958;2023-10-13T16:20:04;11.23;;;5.90;;
17228;SDS011;8731;50.364;8.958;2023-10-13T16:24:36;11.57;;;5.97;;
17228;SDS011;8731;50.364;8.958;2023-10-13T16:28:59;6.97;;;4.80;;
17228;SDS011;8731;50.364;8.958;2023-10-13T16:33:22;8.47;;;5.30;;
17228;SDS011;8731;50.364;8.958;2023-10-13T16:37:46;10.60;;;4.73;;
17228;SDS011;8731;50.364;8.958;2023-10-13T16:42:11;8.80;;;5.60;;
17228;SDS011;8731;50.364;8.958;2023-10-13T16:46:35;11.17;;;7.00;;
17228;SDS011;8731;50.364;8.958;2023-10-13T16:50:58;11.93;;;7.70;;
17228;SDS011;8731;50.364;8.958;2023-10-13T16:55:23;8.73;;;5.40;;
17228;SDS011;8731;50.364;8.958;2023-10-13T16:59:45;8.20;;;5.30;;
17228;SDS011;8731;50.364;8.958;2023-10-13T17:04:08;11.50;;;5.17;;
17228;SDS011;8731;50.364;8.958;2023-10-13T17:08:34;8.60;;;5.93;;
17228;SDS011;8731;50.364;8.958;2023-10-13T17:12:59;9.27;;;5.83;;
17228;SDS011;8731;50.364;8.958;2023-10-13T17:17:24;14.63;;;5.97;;
17228;SDS011;8731;50.364;8.958;2023-10-13T17:21:47;9.23;;;4.50;;
17228;SDS011;8731;50.364;8.958;2023-10-13T17:26:10;8.53;;;4.53;;
17228;SDS011;8731;50.364;8.958;2023-10-13T17:30:34;8.33;;;5.07;;
17228;SDS011;8731;50.364;8.958;2023-10-13T17:34:57;10.43;;;5.30;;
17228;SDS011;8731;50.364;8.958;2023-10-13T17:39:20;8.50;;;5.00;;
17228;SDS011;8731;50.364;8.958;2023-10-13T17:43:44;9.83;;;5.97;;
17228;SDS011;8731;50.364;8.958;2023-10-13T17:48:08;13.47;;;6.70;;
17228;SDS011;8731;50.364;8.958;2023-10-13T17:52:30;10.37;;;5.50;;
17228;SDS011;8731;50.364;8.958;2023-10-13T17:56:56;8.57;;;5.33;;
17228;SDS011;8731;50.364;8.958;2023-10-13T18:01:20;12.90;;;5.47;;
17228;SDS011;8731;50.364;8.958;2023-10-13T18:05:44;12.53;;;5.87;;
17228;SDS011;8731;50.364;8.958;2023-10-13T18:10:08;9.60;;;5.70;;
17228;SDS011;8731;50.364;8.958;2023-10-13T18:14:33;10.03;;;6.03;;
17228;SDS011;8731;50.364;8.958;2023-10-13T18:18:59;13.77;;;7.03;;
17228;SDS011;8731;50.364;8.958;2023-10-13T18:23:28;10.67;;;6.57;;
17228;SDS011;8731;50.364;8.958;2023-10-13T18:27:50;11.93;;;6.40;;
17228;SDS011;8731;50.364;8.958;2023-10-13T18:32:13;11.57;;;6.07;;
17228;SDS011;8731;50.364;8.958;2023-10-13T18:36:38;11.70;;;5.80;;
17228;SDS011;8731;50.364;8.958;2023-10-13T18:41:04;10.00;;;5.30;;
17228;SDS011;8731;50.364;8.958;2023-10-13T18:45:27;10.40;;;4.90;;
17228;SDS011;8731;50.364;8.958;2023-10-13T18:49:51;11.90;;;5.10;;
17228;SDS011;8731;50.364;8.958;2023-10-13T18:54:14;8.80;;;4.60;;
17228;SDS011;8731;50.364;8.958;2023-10-13T18:58:39;7.57;;;4.40;;
17228;SDS011;8731;50.364;8.958;2023-10-13T19:03:04;10.23;;;4.77;;
17228;SDS011;8731;50.364;8.958;2023-10-13T19:07:26;10.67;;;4.50;;
17228;SDS011;8731;50.364;8.958;2023-10-13T19:11:51;12.07;;;4.90;;
17228;SDS011;8731;50.364;8.958;2023-10-13T19:16:17;10.17;;;4.80;;
17228;SDS011;8731;50.364;8.958;2023-10-13T19:20:46;7.47;;;4.60;;
17228;SDS011;8731;50.364;8.958;2023-10-13T19:25:09;10.67;;;4.37;;
17228;SDS011;8731;50.364;8.958;2023-10-13T19:29:32;8.97;;;4.37;;
17228;SDS011;8731;50.364;8.958;2023-10-13T19:33:57;7.13;;;4.50;;
17228;SDS011;8731;50.364;8.958;2023-10-13T19:38:22;14.40;;;5.20;;
17228;SDS011;8731;50.364;8.958;2023-10-13T19:42:48;8.93;;;4.37;;
17228;SDS011;8731;50.364;8.958;2023-10-13T19:47:11;8.03;;;4.17;;
17228;SDS011;8731;50.364;8.958;2023-10-13T19:51:35;8.13;;;4.43;;
17228;SDS011;8731;50.364;8.958;2023-10-13T19:55:57;11.37;;;4.53;;
17228;SDS011;8731;50.364;8.958;2023-10-13T20:00:20;7.53;;;4.53;;
17228;SDS011;8731;50.364;8.958;2023-10-13T20:04:45;8.67;;;4.70;;
17228;SDS011;8731;50.364;8.958;2023-10-13T20:09:09;7.57;;;4.30;;
17228;SDS011;8731;50.364;8.958;2023-10-13T20:13:43;9.13;;;4.27;;
17228;SDS011;8731;50.364;8.958;2023-10-13T20:18:10;7.80;;;4.40;;
17228;SDS011;8731;50.364;8.958;2023-10-13T20:22:32;10.73;;;4.30;;
17228;SDS011;8731;50.364;8.958;2023-10-13T20:27:00;7.87;;;4.93;;
17228;SDS011;8731;50.364;8.958;2023-10-13T20:31:23;10.10;;;4.67;;
17228;SDS011;8731;50.364;8.958;2023-10-13T20:35:46;9.37;;;4.70;;
17228;SDS011;8731;50.364;8.958;2023-10-13T20:40:09;7.20;;;4.37;;
17228;SDS011;8731;50.364;8.958;2023-10-13T20:44:41;9.00;;;4.10;;
17228;SDS011;8731;50.364;8.958;2023-10-13T20:49:04;9.33;;;4.63;;
17228;SDS011;8731;50.364;8.958;2023-10-13T20:53:26;7.30;;;4.13;;
17228;SDS011;8731;50.364;8.958;2023-10-13T20:57:49;7.23;;;3.57;;
17228;SDS011;8731;50.364;8.958;2023-10-13T21:02:15;5.50;;;3.60;;
17228;SDS011;8731;50.364;8.958;2023-10-13T21:06:42;8.47;;;3.83;;
17228;SDS011;8731;50.364;8.958;2023-10-13T21:11:05;6.17;;;3.47;;
17228;SDS011;8731;50.364;8.958;2023-10-13T21:15:27;6.63;;;3.70;;
17228;SDS011;8731;50.364;8.958;2023-10-13T21:19:51;3.87;;;2.97;;
17228;SDS011;8731;50.364;8.958;2023-10-13T21:24:14;10.57;;;4.13;;
17228;SDS011;8731;50.364;8.958;2023-10-13T21:28:38;6.83;;;3.63;;
17228;SDS011;8731;50.364;8.958;2023-10-13T21:33:00;7.77;;;3.47;;
17228;SDS011;8731;50.364;8.958;2023-10-13T21:37:29;6.73;;;3.40;;
17228;SDS011;8731;50.364;8.958;2023-10-13T21:41:51;8.23;;;3.40;;
17228;SDS011;8731;50.364;8.958;2023-10-13T21:46:14;13.30;;;3.20;;
17228;SDS011;8731;50.364;8.958;2023-10-13T21:50:39;5.70;;;3.70;;
17228;SDS011;8731;50.364;8.958;2023-10-13T21:55:04;11.67;;;4.20;;
17228;SDS011;8731;50.364;8.958;2023-10-13T21:59:35;6.97;;;3.53;;
17228;SDS011;8731;50.364;8.958;2023-10-13T22:03:58;7.03;;;3.80;;
17228;SDS011;8731;50.364;8.958;2023-10-13T22:08:30;9.27;;;4.10;;
17228;SDS011;8731;50.364;8.958;2023-10-13T22:12:54;6.80;;;3.70;;
17228;SDS011;8731;50.364;8.958;2023-10-13T22:17:17;9.03;;;4.40;;
17228;SDS011;8731;50.364;8.958;2023-10-13T22:21:40;6.00;;;3.57;;
17228;SDS011;8731;50.364;8.958;2023-10-13T22:26:03;6.30;;;3.63;;
17228;SDS011;8731;50.364;8.958;2023-10-13T22:30:28;9.23;;;3.97;;
17228;SDS011;8731;50.364;8.958;2023-10-13T22:34:52;6.47;;;4.10;;
17228;SDS011;8731;50.364;8.958;2023-10-13T22:39:15;9.53;;;4.03;;
17228;SDS011;8731;50.364;8.958;2023-10-13T22:43:45;9.07;;;5.00;;
17228;SDS011;8731;50.364;8.958;2023-10-13T22:48:10;10.80;;;5.03;;
17228;SDS011;8731;50.364;8.958;2023-10-13T22:52:33;6.87;;;4.37;;
17228;SDS011;8731;50.364;8.958;2023-10-13T22:56:55;8.10;;;4.17;;
17228;SDS011;8731;50.364;8.958;2023-10-13T23:01:18;7.83;;;4.17;;
17228;SDS011;8731;50.364;8.958;2023-10-13T23:05:42;7.70;;;4.07;;
17228;SDS011;8731;50.364;8.958;2023-10-13T23:10:13;10.20;;;4.40;;
17228;SDS011;8731;50.364;8.958;2023-10-13T23:14:52;11.60;;;4.37;;
17228;SDS011;8731;50.364;8.958;2023-10-13T23:19:16;8.63;;;4.30;;
17228;SDS011;8731;50.364;8.958;2023-10-13T23:23:41;8.80;;;4.10;;
17228;SDS011;8731;50.364;8.958;2023-10-13T23:28:05;6.67;;;4.70;;
17228;SDS011;8731;50.364;8.958;2023-10-13T23:32:31;11.43;;;4.50;;
17228;SDS011;8731;50.364;8.958;2023-10-13T23:36:53;7.00;;;4.40;;
17228;SDS011;8731;50.364;8.958;2023-10-13T23:41:22;5.70;;;4.00;;
17228;SDS011;8731;50.364;8.958;2023-10-13T23:45:48;11.23;;;4.00;;
17228;SDS011;8731;50.364;8.958;2023-10-13T23:50:24;11.70;;;4.70;;
17228;SDS011;8731;50.364;8.958;2023-10-13T23:54:48;8.27;;;4.27;;
17228;SDS011;8731;50.364;8.958;2023-10-13T23:59:16;7.97;;;3.97;;
